createdAt,value
2023-02-02T00:01:23.472Z,70.70
2023-02-02T00:03:50.005Z,70.70
2023-02-02T00:06:16.491Z,70.60
2023-02-02T00:08:42.976Z,70.50
2023-02-02T00:11:09.453Z,70.50
2023-02-02T00:13:35.915Z,70.60
2023-02-02T00:16:02.481Z,71.50
2023-02-02T00:18:28.949Z,70.60
2023-02-02T00:20:55.432Z,70.60
2023-02-02T00:23:21.911Z,70.60
2023-02-02T00:25:48.396Z,70.50
2023-02-02T00:28:14.876Z,70.30
2023-02-02T00:30:41.413Z,70.50
2023-02-02T00:33:07.934Z,70.50
2023-02-02T00:35:34.412Z,70.50
2023-02-02T00:38:00.875Z,70.70
2023-02-02T00:40:27.363Z,70.60
2023-02-02T00:42:53.841Z,71.60
2023-02-02T00:45:20.343Z,70.90
2023-02-02T00:47:46.813Z,70.60
2023-02-02T00:50:13.311Z,70.70
2023-02-02T00:52:39.805Z,70.50
2023-02-02T00:55:06.308Z,70.60
2023-02-02T00:57:32.782Z,70.70
2023-02-02T00:59:59.272Z,70.50
2023-02-02T01:02:25.771Z,71.00
2023-02-02T01:04:52.263Z,71.00
2023-02-02T01:07:18.732Z,70.80
2023-02-02T01:09:45.219Z,71.00
2023-02-02T01:12:11.673Z,71.10
2023-02-02T01:14:38.173Z,71.40
2023-02-02T01:17:04.622Z,71.20
2023-02-02T01:19:31.107Z,71.30
2023-02-02T01:21:57.596Z,71.30
2023-02-02T01:24:24.071Z,71.20
2023-02-02T01:26:50.609Z,71.20
2023-02-02T01:29:17.101Z,70.90
2023-02-02T01:31:43.635Z,70.90
2023-02-02T01:34:10.124Z,71.10
2023-02-02T01:36:36.595Z,71.40
2023-02-02T01:39:03.082Z,71.50
2023-02-02T01:41:29.589Z,71.20
2023-02-02T01:43:56.065Z,71.60
2023-02-02T01:46:22.583Z,71.70
2023-02-02T01:48:49.063Z,71.60
2023-02-02T01:51:15.572Z,71.80
2023-02-02T01:53:42.053Z,71.80
2023-02-02T01:56:08.554Z,72.10
2023-02-02T01:58:35.106Z,71.90
2023-02-02T02:01:01.660Z,72.10
2023-02-02T02:03:28.139Z,72.30
2023-02-02T02:05:54.661Z,72.10
2023-02-02T02:08:21.136Z,72.40
2023-02-02T02:10:47.624Z,72.50
2023-02-02T02:13:14.118Z,72.50
2023-02-02T02:15:40.601Z,72.10
2023-02-02T02:18:09.992Z,72.40
2023-02-02T02:20:36.473Z,72.20
2023-02-02T02:23:02.926Z,72.20
2023-02-02T02:25:29.455Z,72.50
2023-02-02T02:27:55.944Z,72.50
2023-02-02T02:30:22.441Z,72.50
2023-02-02T02:32:48.896Z,72.60
2023-02-02T02:35:15.385Z,72.50
2023-02-02T02:37:41.871Z,72.50
2023-02-02T02:40:08.355Z,72.40
2023-02-02T02:42:34.847Z,72.80
2023-02-02T02:45:01.328Z,73.10
2023-02-02T02:47:27.796Z,73.00
2023-02-02T02:49:54.254Z,73.20
2023-02-02T02:52:20.719Z,73.00
2023-02-02T02:54:47.194Z,73.50
2023-02-02T02:57:13.681Z,73.10
2023-02-02T02:59:40.139Z,73.10
2023-02-02T03:02:06.632Z,73.10
2023-02-02T03:04:33.092Z,73.40
2023-02-02T03:06:59.557Z,73.40
2023-02-02T03:09:26.013Z,73.40
2023-02-02T03:11:58.068Z,73.50
2023-02-02T03:14:24.528Z,73.30
2023-02-02T03:16:51.005Z,73.20
2023-02-02T03:19:17.478Z,73.30
2023-02-02T03:21:43.973Z,73.20
2023-02-02T03:24:10.444Z,73.50
2023-02-02T03:26:36.951Z,73.40
2023-02-02T03:29:03.396Z,73.50
2023-02-02T03:31:29.907Z,73.20
2023-02-02T03:33:56.403Z,73.30
2023-02-02T03:36:22.892Z,73.40
2023-02-02T03:38:49.375Z,73.60
2023-02-02T03:41:15.854Z,73.30
2023-02-02T03:43:42.331Z,73.50
2023-02-02T03:46:08.852Z,73.00
2023-02-02T03:48:35.348Z,73.00
2023-02-02T03:51:01.842Z,73.20
2023-02-02T03:53:28.297Z,74.40
2023-02-02T03:55:54.782Z,73.70
2023-02-02T03:58:21.252Z,73.60
2023-02-02T04:00:47.743Z,73.50
2023-02-02T04:03:14.204Z,73.70
2023-02-02T04:05:40.699Z,73.50
2023-02-02T04:08:07.169Z,73.60
2023-02-02T04:10:33.663Z,73.50
2023-02-02T04:13:00.147Z,73.70
2023-02-02T04:15:26.946Z,73.70
2023-02-02T04:17:53.624Z,74.10
2023-02-02T04:20:20.097Z,74.40
2023-02-02T04:22:46.595Z,74.00
2023-02-02T04:25:13.085Z,74.10
2023-02-02T04:27:39.565Z,73.90
2023-02-02T04:30:06.027Z,74.00
2023-02-02T04:32:32.510Z,74.00
2023-02-02T04:34:58.962Z,74.40
2023-02-02T04:37:25.446Z,74.20
2023-02-02T04:39:51.903Z,74.00
2023-02-02T04:42:18.365Z,74.40
2023-02-02T04:44:44.851Z,74.20
2023-02-02T04:47:11.334Z,74.10
2023-02-02T04:49:37.826Z,74.00
2023-02-02T04:52:04.325Z,74.00
2023-02-02T04:54:30.823Z,74.10
2023-02-02T04:56:57.304Z,74.00
2023-02-02T04:59:23.809Z,74.20
2023-02-02T05:01:50.284Z,74.00
2023-02-02T05:04:16.784Z,74.20
2023-02-02T05:06:43.296Z,74.40
2023-02-02T05:09:09.758Z,74.30
2023-02-02T05:11:36.251Z,74.60
2023-02-02T05:14:02.733Z,74.60
2023-02-02T05:16:29.381Z,74.40
2023-02-02T05:18:55.885Z,74.30
2023-02-02T05:21:22.391Z,74.50
2023-02-02T05:23:48.887Z,74.60
2023-02-02T05:26:15.400Z,74.50
2023-02-02T05:28:41.864Z,74.80
2023-02-02T05:31:08.388Z,74.90
2023-02-02T05:33:37.926Z,74.70
2023-02-02T05:36:04.428Z,74.70
2023-02-02T05:38:34.357Z,74.60
2023-02-02T05:41:00.854Z,74.60
2023-02-02T05:43:27.354Z,74.90
2023-02-02T05:45:53.866Z,74.70
2023-02-02T05:48:20.348Z,75.00
2023-02-02T05:50:46.843Z,75.00
2023-02-02T05:53:13.300Z,74.90
2023-02-02T05:55:39.760Z,74.80
2023-02-02T05:58:06.246Z,75.20
2023-02-02T06:00:32.707Z,75.10
2023-02-02T06:02:59.214Z,75.40
2023-02-02T06:05:26.010Z,75.00
2023-02-02T06:07:52.637Z,75.90
2023-02-02T06:10:19.106Z,75.00
2023-02-02T06:12:45.593Z,75.10
2023-02-02T06:15:12.086Z,74.90
2023-02-02T06:17:38.551Z,75.00
2023-02-02T06:20:05.039Z,75.20
2023-02-02T06:22:31.512Z,75.60
2023-02-02T06:24:57.968Z,75.40
2023-02-02T06:27:24.443Z,75.40
2023-02-02T06:29:50.890Z,75.40
2023-02-02T06:32:17.384Z,75.70
2023-02-02T06:34:43.863Z,75.70
2023-02-02T06:37:10.348Z,75.60
2023-02-02T06:39:36.825Z,75.50
2023-02-02T06:42:19.218Z,75.30
2023-02-02T06:44:47.462Z,75.70
2023-02-02T06:47:13.969Z,75.60
2023-02-02T06:49:40.436Z,76.30
2023-02-02T06:52:06.955Z,75.30
2023-02-02T06:54:33.431Z,75.60
2023-02-02T06:56:59.914Z,75.40
2023-02-02T06:59:26.376Z,76.00
2023-02-02T07:01:52.925Z,76.10
2023-02-02T07:04:19.488Z,76.00
2023-02-02T07:06:45.961Z,75.80
2023-02-02T07:09:12.429Z,76.00
2023-02-02T07:11:45.381Z,75.90
2023-02-02T07:14:12.080Z,75.90
2023-02-02T07:16:38.568Z,76.00
2023-02-02T07:19:05.044Z,75.70
2023-02-02T07:21:31.511Z,76.10
2023-02-02T07:23:57.983Z,75.70
2023-02-02T07:26:24.520Z,75.90
2023-02-02T07:28:50.986Z,76.00
2023-02-02T07:31:17.527Z,75.80
2023-02-02T07:33:44.038Z,75.90
2023-02-02T07:36:10.531Z,75.60
2023-02-02T07:38:37.018Z,75.90
2023-02-02T07:41:03.482Z,76.40
2023-02-02T07:43:29.942Z,76.00
2023-02-02T07:45:56.432Z,75.90
2023-02-02T07:48:22.941Z,76.00
2023-02-02T07:50:49.404Z,76.30
2023-02-02T07:53:15.913Z,76.40
2023-02-02T07:55:42.380Z,76.50
2023-02-02T07:58:08.834Z,76.30
2023-02-02T08:00:35.374Z,76.30
2023-02-02T08:03:01.946Z,76.40
2023-02-02T08:05:28.521Z,76.30
2023-02-02T08:07:54.995Z,76.20
2023-02-02T08:10:21.468Z,76.50
2023-02-02T08:12:47.947Z,76.30
2023-02-02T08:15:14.436Z,76.50
2023-02-02T08:17:46.345Z,76.30
2023-02-02T08:20:12.832Z,76.40
2023-02-02T08:22:39.333Z,76.50
2023-02-02T08:25:05.809Z,77.50
2023-02-02T08:27:32.283Z,76.80
2023-02-02T08:29:58.759Z,76.50
2023-02-02T08:32:25.233Z,76.70
2023-02-02T08:34:51.746Z,76.80
2023-02-02T08:37:18.230Z,76.60
2023-02-02T08:39:44.745Z,76.70
2023-02-02T08:42:11.208Z,76.60
2023-02-02T08:45:00.691Z,76.40
2023-02-02T08:47:24.140Z,76.50
2023-02-02T08:49:50.723Z,76.50
2023-02-02T08:52:17.183Z,76.20
2023-02-02T08:54:43.663Z,76.60
2023-02-02T08:57:10.126Z,76.30
2023-02-02T08:59:36.645Z,76.60
2023-02-02T09:02:03.120Z,76.50
2023-02-02T09:04:29.620Z,76.90
2023-02-02T09:06:56.087Z,76.90
2023-02-02T09:09:22.601Z,76.80
2023-02-02T09:11:49.071Z,77.00
2023-02-02T09:14:15.567Z,77.00
2023-02-02T09:16:42.089Z,76.90
2023-02-02T09:19:08.584Z,77.00
2023-02-02T09:21:35.068Z,76.60
2023-02-02T09:24:01.561Z,76.70
2023-02-02T09:26:28.138Z,76.50
2023-02-02T09:28:54.648Z,76.70
2023-02-02T09:31:21.181Z,77.10
2023-02-02T09:33:47.664Z,77.00
2023-02-02T09:36:14.155Z,77.40
2023-02-02T09:38:40.613Z,77.20
2023-02-02T09:41:07.796Z,77.50
2023-02-02T09:43:34.305Z,77.50
2023-02-02T09:46:00.874Z,77.40
2023-02-02T09:48:27.429Z,77.20
2023-02-02T09:50:53.916Z,77.20
2023-02-02T09:53:20.389Z,77.80
2023-02-02T09:55:46.872Z,77.80
2023-02-02T09:58:13.333Z,77.60
2023-02-02T10:00:39.820Z,77.30
2023-02-02T10:03:06.279Z,77.20
2023-02-02T10:05:32.771Z,77.20
2023-02-02T10:07:59.230Z,77.00
2023-02-02T10:10:25.740Z,77.20
2023-02-02T10:12:52.235Z,77.20
2023-02-02T10:15:18.739Z,77.20
2023-02-02T10:17:45.203Z,77.40
2023-02-02T10:20:11.713Z,78.10
2023-02-02T10:22:38.179Z,77.50
2023-02-02T10:25:04.678Z,77.10
2023-02-02T10:27:31.167Z,77.50
2023-02-02T10:29:57.642Z,77.20
2023-02-02T10:32:24.132Z,77.60
2023-02-02T10:34:55.589Z,77.90
2023-02-02T10:37:26.764Z,77.50
2023-02-02T10:39:53.266Z,77.70
2023-02-02T10:42:19.768Z,77.80
2023-02-02T10:44:46.255Z,77.70
2023-02-02T10:47:13.853Z,77.60
2023-02-02T10:49:40.326Z,77.40
2023-02-02T10:52:06.844Z,77.40
2023-02-02T10:54:38.095Z,77.70
2023-02-02T10:57:09.309Z,77.60
2023-02-02T10:59:35.779Z,77.80
2023-02-02T11:02:18.889Z,77.60
2023-02-02T11:04:47.018Z,77.90
2023-02-02T11:07:13.512Z,77.60
2023-02-02T11:09:39.978Z,77.60
2023-02-02T11:12:06.488Z,77.60
2023-02-02T11:14:37.156Z,77.70
2023-02-02T11:17:10.947Z,77.80
2023-02-02T11:19:37.417Z,77.80
2023-02-02T11:22:03.891Z,77.40
2023-02-02T11:24:30.508Z,77.20
2023-02-02T11:26:57.047Z,77.90
2023-02-02T11:29:23.625Z,77.30
2023-02-02T11:31:50.159Z,77.70
2023-02-02T11:34:18.330Z,77.40
2023-02-02T11:36:46.717Z,77.30
2023-02-02T11:39:13.187Z,77.30
2023-02-02T11:41:39.670Z,77.40
2023-02-02T11:44:06.145Z,77.40
2023-02-02T11:46:32.833Z,77.50
2023-02-02T11:48:59.425Z,77.60
2023-02-02T11:51:26.134Z,77.20
2023-02-02T11:53:52.638Z,77.70
2023-02-02T11:56:19.185Z,77.60
2023-02-02T11:58:45.671Z,77.40
2023-02-02T12:01:12.151Z,77.30
2023-02-02T12:03:38.635Z,77.30
2023-02-02T12:06:05.115Z,77.30
2023-02-02T12:08:31.589Z,78.20
2023-02-02T12:10:58.065Z,77.20
2023-02-02T12:13:24.534Z,77.40
2023-02-02T12:15:51.035Z,77.40
2023-02-02T12:18:17.549Z,77.30
2023-02-02T12:20:44.063Z,77.40
2023-02-02T12:23:10.551Z,77.70
2023-02-02T12:25:37.098Z,77.70
2023-02-02T12:28:03.559Z,78.00
2023-02-02T12:30:30.037Z,78.20
2023-02-02T12:32:56.502Z,77.70
2023-02-02T12:35:22.996Z,77.50
2023-02-02T12:37:49.469Z,77.60
2023-02-02T12:40:15.970Z,77.60
2023-02-02T12:42:42.446Z,77.80
2023-02-02T12:45:09.023Z,77.80
2023-02-02T12:47:35.518Z,77.70
2023-02-02T12:50:01.998Z,77.60
2023-02-02T12:52:28.458Z,78.20
2023-02-02T12:54:55.058Z,78.10
2023-02-02T12:57:22.467Z,78.10
2023-02-02T12:59:48.916Z,78.10
2023-02-02T13:02:15.471Z,78.20
2023-02-02T13:04:41.956Z,77.90
2023-02-02T13:07:08.425Z,78.10
2023-02-02T13:09:34.902Z,78.20
2023-02-02T13:12:01.386Z,77.80
2023-02-02T13:14:27.873Z,78.10
2023-02-02T13:16:54.401Z,77.60
2023-02-02T13:19:20.932Z,77.80
2023-02-02T13:21:47.428Z,77.40
2023-02-02T13:24:13.885Z,77.40
2023-02-02T13:26:40.499Z,77.80
2023-02-02T13:29:07.051Z,77.80
2023-02-02T13:31:33.612Z,77.70
2023-02-02T13:34:00.134Z,78.10
2023-02-02T13:36:26.656Z,78.00
2023-02-02T13:38:53.132Z,78.00
2023-02-02T13:41:19.630Z,77.90
2023-02-02T13:43:46.092Z,78.00
2023-02-02T13:46:12.687Z,77.90
2023-02-02T13:48:39.191Z,77.60
2023-02-02T13:51:05.686Z,77.70
2023-02-02T13:53:32.162Z,77.50
2023-02-02T13:55:58.645Z,77.50
2023-02-02T13:58:25.135Z,77.50
2023-02-02T14:00:51.603Z,77.70
2023-02-02T14:03:18.105Z,77.80
2023-02-02T14:05:44.568Z,78.30
2023-02-02T14:08:11.117Z,78.20
2023-02-02T14:10:37.602Z,77.90
2023-02-02T14:13:04.080Z,77.80
2023-02-02T14:15:30.615Z,77.60
2023-02-02T14:17:57.105Z,77.80
2023-02-02T14:20:23.601Z,77.80
2023-02-02T14:22:50.087Z,78.00
2023-02-02T14:25:16.561Z,78.10
2023-02-02T14:27:43.052Z,77.80
2023-02-02T14:30:09.540Z,77.60
2023-02-02T14:32:36.040Z,77.60
2023-02-02T14:35:02.514Z,78.00
2023-02-02T14:37:29.022Z,78.00
2023-02-02T14:39:55.500Z,78.30
2023-02-02T14:42:21.981Z,78.60
2023-02-02T14:44:48.465Z,78.20
2023-02-02T14:47:14.954Z,78.00
2023-02-02T14:49:41.432Z,77.80
2023-02-02T14:52:07.969Z,77.90
2023-02-02T14:54:34.484Z,77.80
2023-02-02T14:57:00.972Z,78.10
2023-02-02T14:59:27.477Z,78.10
2023-02-02T15:01:54.051Z,78.40
2023-02-02T15:04:20.551Z,78.30
2023-02-02T15:06:47.027Z,78.10
2023-02-02T15:09:13.494Z,78.20
2023-02-02T15:11:39.971Z,78.30
2023-02-02T15:14:06.430Z,78.00
2023-02-02T15:16:32.933Z,78.30
2023-02-02T15:18:59.415Z,78.10
2023-02-02T15:21:25.920Z,78.00
2023-02-02T15:23:52.399Z,77.90
2023-02-02T15:26:18.911Z,78.10
2023-02-02T15:28:45.365Z,78.20
2023-02-02T15:31:12.008Z,78.10
2023-02-02T15:33:38.571Z,78.00
2023-02-02T15:36:05.063Z,77.80
2023-02-02T15:38:31.536Z,78.20
2023-02-02T15:40:58.026Z,78.10
2023-02-02T15:43:24.511Z,78.70
2023-02-02T15:45:50.976Z,78.20
2023-02-02T15:48:17.454Z,78.30
2023-02-02T15:50:43.936Z,77.70
2023-02-02T15:53:10.414Z,77.60
2023-02-02T15:55:36.912Z,77.90
2023-02-02T15:58:03.367Z,77.90
2023-02-02T16:00:29.902Z,78.00
2023-02-02T16:02:56.415Z,77.70
2023-02-02T16:05:23.097Z,77.90
2023-02-02T16:08:03.645Z,78.00
2023-02-02T16:10:31.720Z,78.00
2023-02-02T16:12:58.377Z,78.30
2023-02-02T16:15:25.181Z,77.80
2023-02-02T16:17:51.847Z,78.10
2023-02-02T16:20:18.336Z,77.90
2023-02-02T16:22:46.909Z,78.00
2023-02-02T16:25:13.609Z,77.80
2023-02-02T16:27:40.110Z,78.00
2023-02-02T16:30:06.562Z,78.10
2023-02-02T16:32:33.040Z,78.10
2023-02-02T16:34:59.503Z,78.20
2023-02-02T16:37:26.036Z,78.20
2023-02-02T16:39:52.519Z,77.90
2023-02-02T16:42:19.007Z,78.50
2023-02-02T16:44:45.501Z,78.40
2023-02-02T16:47:11.984Z,78.00
2023-02-02T16:49:38.471Z,78.30
2023-02-02T16:52:04.939Z,78.50
2023-02-02T16:54:31.419Z,78.50
2023-02-02T16:56:57.897Z,78.20
2023-02-02T16:59:24.392Z,78.50
2023-02-02T17:01:51.203Z,78.50
2023-02-02T17:04:17.722Z,78.80
2023-02-02T17:06:52.272Z,78.60
2023-02-02T17:09:19.483Z,78.50
2023-02-02T17:11:45.980Z,78.60
2023-02-02T17:14:12.455Z,78.70
2023-02-02T17:16:38.970Z,78.40
2023-02-02T17:19:05.480Z,78.30
2023-02-02T17:21:33.862Z,78.20
2023-02-02T17:24:00.357Z,78.20
2023-02-02T17:26:26.841Z,78.70
2023-02-02T17:28:53.312Z,78.50
2023-02-02T17:31:19.913Z,78.50
2023-02-02T17:33:46.479Z,78.50
2023-02-02T17:36:12.975Z,78.70
2023-02-02T17:38:39.456Z,78.70
2023-02-02T17:41:05.946Z,78.80
2023-02-02T17:43:32.411Z,78.50
2023-02-02T17:45:58.903Z,78.70
2023-02-02T17:48:25.418Z,78.70
2023-02-02T17:50:51.932Z,78.70
2023-02-02T17:53:18.427Z,78.50
2023-02-02T17:55:44.909Z,78.90
2023-02-02T17:58:11.393Z,79.10
2023-02-02T18:00:37.879Z,78.80
2023-02-02T18:03:04.382Z,79.00
2023-02-02T18:05:30.868Z,78.50
2023-02-02T18:07:57.363Z,79.10
2023-02-02T18:10:24.381Z,78.70
2023-02-02T18:12:51.179Z,78.60
2023-02-02T18:15:17.677Z,78.70
2023-02-02T18:17:44.192Z,78.80
2023-02-02T18:20:10.657Z,78.90
2023-02-02T18:22:37.149Z,78.90
2023-02-02T18:25:03.640Z,79.00
2023-02-02T18:27:30.137Z,78.90
2023-02-02T18:29:56.625Z,78.80
2023-02-02T18:32:23.150Z,78.80
2023-02-02T18:34:49.611Z,79.50
2023-02-02T18:37:16.083Z,78.70
2023-02-02T18:39:42.551Z,78.50
2023-02-02T18:42:09.056Z,78.90
2023-02-02T18:44:35.541Z,78.70
2023-02-02T18:47:02.049Z,79.00
2023-02-02T18:49:28.527Z,79.30
2023-02-02T18:51:55.000Z,79.10
2023-02-02T18:54:21.484Z,79.00
2023-02-02T18:56:47.949Z,79.60
2023-02-02T18:59:14.432Z,79.30
2023-02-02T19:01:40.968Z,79.40
2023-02-02T19:04:07.481Z,79.00
2023-02-02T19:06:33.990Z,79.10
2023-02-02T19:09:00.473Z,79.00
2023-02-02T19:11:26.928Z,79.10
2023-02-02T19:13:53.415Z,79.10
2023-02-02T19:16:19.892Z,79.00
2023-02-02T19:18:46.416Z,79.00
2023-02-02T19:21:12.884Z,79.30
2023-02-02T19:23:39.350Z,79.40
2023-02-02T19:26:05.831Z,79.20
2023-02-02T19:28:32.308Z,79.40
2023-02-02T19:30:58.877Z,79.60
2023-02-02T19:33:25.407Z,79.70
2023-02-02T19:35:51.896Z,79.70
2023-02-02T19:38:18.387Z,79.50
2023-02-02T19:40:44.889Z,80.20
2023-02-02T19:43:11.372Z,79.80
2023-02-02T19:45:37.839Z,79.80
2023-02-02T19:48:04.330Z,79.50
2023-02-02T19:50:30.823Z,79.40
2023-02-02T19:52:57.300Z,79.70
2023-02-02T19:55:23.776Z,79.40
2023-02-02T19:57:50.259Z,79.60
2023-02-02T20:00:16.733Z,79.70
2023-02-02T20:02:43.231Z,79.80
2023-02-02T20:05:09.734Z,80.00
2023-02-02T20:07:36.232Z,79.90
2023-02-02T20:10:02.765Z,79.40
2023-02-02T20:12:29.242Z,79.60
2023-02-02T20:14:55.725Z,79.40
2023-02-02T20:17:22.185Z,79.70
2023-02-02T20:19:48.719Z,79.50
2023-02-02T20:22:15.207Z,79.60
2023-02-02T20:24:41.689Z,80.00
2023-02-02T20:27:08.188Z,79.40
2023-02-02T20:29:34.667Z,79.30
2023-02-02T20:32:01.164Z,79.60
2023-02-02T20:34:27.735Z,79.60
2023-02-02T20:36:54.271Z,79.80
2023-02-02T20:39:20.739Z,79.30
2023-02-02T20:41:47.213Z,79.60
2023-02-02T20:44:13.696Z,79.30
2023-02-02T20:46:40.184Z,79.10
2023-02-02T20:49:06.671Z,79.40
2023-02-02T20:51:33.157Z,79.70
2023-02-02T20:53:59.656Z,80.00
2023-02-02T20:56:26.132Z,80.00
2023-02-02T20:58:52.613Z,80.10
2023-02-02T21:01:19.183Z,79.90
2023-02-02T21:03:45.695Z,79.90
2023-02-02T21:06:12.196Z,79.70
2023-02-02T21:08:38.680Z,79.50
2023-02-02T21:11:05.186Z,79.70
2023-02-02T21:13:31.662Z,79.60
2023-02-02T21:15:58.161Z,79.70
2023-02-02T21:18:24.627Z,79.60
2023-02-02T21:20:51.170Z,79.70
2023-02-02T21:23:17.667Z,79.60
2023-02-02T21:25:44.170Z,79.40
2023-02-02T21:28:10.651Z,79.30
2023-02-02T21:30:37.231Z,79.30
2023-02-02T21:33:03.782Z,79.40
2023-02-02T21:35:30.285Z,79.50
2023-02-02T21:37:56.752Z,79.90
2023-02-02T21:40:23.282Z,80.20
2023-02-02T21:42:49.779Z,80.30
2023-02-02T21:45:16.270Z,80.20
2023-02-02T21:47:42.732Z,79.80
2023-02-02T21:50:09.243Z,79.60
2023-02-02T21:52:35.736Z,79.80
2023-02-02T21:55:02.212Z,79.70
2023-02-02T21:57:28.674Z,79.80
2023-02-02T21:59:55.133Z,79.90
2023-02-02T22:02:21.619Z,79.90
2023-02-02T22:04:48.090Z,79.70
2023-02-02T22:07:14.584Z,79.90
2023-02-02T22:09:41.067Z,79.80
2023-02-02T22:12:07.553Z,80.00
2023-02-02T22:14:34.037Z,79.60
2023-02-02T22:17:00.534Z,79.80
2023-02-02T22:19:27.014Z,79.50
2023-02-02T22:21:53.488Z,80.10
2023-02-02T22:24:19.940Z,80.10
2023-02-02T22:26:46.422Z,80.10
2023-02-02T22:29:12.891Z,80.00
2023-02-02T22:31:39.513Z,80.20
2023-02-02T22:34:06.054Z,80.10
2023-02-02T22:36:32.517Z,80.20
2023-02-02T22:38:58.984Z,80.20
2023-02-02T22:41:25.546Z,79.80
2023-02-02T22:43:52.034Z,80.00
2023-02-02T22:46:18.561Z,79.80
2023-02-02T22:48:45.053Z,79.90
2023-02-02T22:51:11.540Z,80.00
2023-02-02T22:53:38.006Z,79.90
2023-02-02T22:56:04.528Z,79.90
2023-02-02T22:58:30.996Z,80.20
2023-02-02T23:00:57.487Z,79.80
2023-02-02T23:03:23.966Z,79.90
2023-02-02T23:05:50.456Z,80.20
2023-02-02T23:08:16.915Z,80.20
2023-02-02T23:10:43.416Z,80.30
2023-02-02T23:13:09.879Z,80.10
2023-02-02T23:15:36.374Z,80.10
2023-02-02T23:18:02.885Z,80.10
2023-02-02T23:20:29.465Z,80.00
2023-02-02T23:22:56.017Z,80.40
2023-02-02T23:25:23.021Z,80.00
2023-02-02T23:27:49.583Z,79.50
2023-02-02T23:30:16.086Z,79.70
2023-02-02T23:32:42.549Z,79.70
2023-02-02T23:35:10.788Z,79.60
2023-02-02T23:37:37.566Z,79.60
2023-02-02T23:40:05.035Z,79.90
2023-02-02T23:42:31.566Z,80.00
2023-02-02T23:44:58.032Z,79.80
2023-02-02T23:47:24.519Z,80.00
2023-02-02T23:49:51.007Z,79.80
2023-02-02T23:52:17.491Z,80.00
2023-02-02T23:54:43.983Z,79.80
2023-02-02T23:57:10.499Z,79.80
2023-02-02T23:59:36.973Z,79.50
